Time;durP1;ratioP1;P1;durP2;ratioP2;P2;SDS_P1;SDS_P2;PMS_P1;PMS_P2;Temp;Humidity;BMP_temperature;BMP_pressure;BME280_temperature;BME280_humidity;BME280_pressure;Samples;Min_cycle;Max_cycle;Signal;HPM_P1;HPM_P2
2024/01/18 00:01:14;;;;;;;27.63;18.08;;;-2.00;99.90;;;;;;5077324;28;20131;-69
2024/01/18 00:03:40;;;;;;;26.23;18.30;;;-2.00;99.90;;;;;;5077269;28;20047;-69
2024/01/18 00:06:07;;;;;;;25.02;17.65;;;-2.00;99.90;;;;;;5060589;28;20408;-69
2024/01/18 00:08:33;;;;;;;26.38;17.85;;;-2.10;99.90;;;;;;5077054;28;20044;-69
2024/01/18 00:11:00;;;;;;;26.20;16.92;;;-2.10;99.90;;;;;;5077129;28;20040;-69
2024/01/18 00:13:27;;;;;;;25.58;16.70;;;-2.10;99.90;;;;;;5093956;28;20438;-69
2024/01/18 00:15:52;;;;;;;27.08;16.73;;;-2.10;99.90;;;;;;5077195;28;20123;-70
2024/01/18 00:18:18;;;;;;;24.60;16.25;;;-2.10;99.90;;;;;;5060648;28;20130;-70
2024/01/18 00:20:44;;;;;;;28.65;17.30;;;-2.10;99.90;;;;;;5076869;28;20047;-70
2024/01/18 00:23:10;;;;;;;25.70;17.83;;;-2.20;99.90;;;;;;5060511;28;20093;-69
2024/01/18 00:25:36;;;;;;;27.75;17.77;;;-2.10;99.90;;;;;;5060092;28;20052;-69
2024/01/18 00:28:02;;;;;;;26.85;17.73;;;-2.10;99.90;;;;;;5058900;28;20048;-70
2024/01/18 00:30:28;;;;;;;26.67;18.00;;;-2.10;99.90;;;;;;5059775;28;20119;-70
2024/01/18 00:32:54;;;;;;;26.35;17.88;;;-2.10;99.90;;;;;;5060040;28;20131;-69
2024/01/18 00:35:19;;;;;;;24.25;17.27;;;-2.10;99.90;;;;;;5076700;28;20547;-69
2024/01/18 00:37:46;;;;;;;26.55;17.88;;;-2.20;99.90;;;;;;5060260;28;20468;-69
2024/01/18 00:40:15;;;;;;;25.60;17.15;;;-2.10;99.90;;;;;;5060026;28;20123;-69
2024/01/18 00:42:40;;;;;;;26.40;16.92;;;-2.10;99.90;;;;;;5076523;28;20048;-69
2024/01/18 00:45:06;;;;;;;24.73;16.55;;;-2.00;99.90;;;;;;5060217;28;20563;-70
2024/01/18 00:47:33;;;;;;;26.45;16.20;;;-2.10;99.90;;;;;;5076655;28;20047;-69
2024/01/18 00:49:59;;;;;;;24.95;16.27;;;-2.10;99.90;;;;;;5076629;28;20032;-69
2024/01/18 00:52:25;;;;;;;26.50;17.15;;;-2.10;99.90;;;;;;5076303;28;20048;-69
2024/01/18 00:54:51;;;;;;;25.75;15.75;;;-1.60;99.90;;;;;;5059557;28;20078;-69
2024/01/18 00:57:16;;;;;;;26.02;16.23;;;-2.00;99.90;;;;;;5076546;28;20071;-69
2024/01/18 00:59:42;;;;;;;23.85;16.00;;;-2.10;99.90;;;;;;5076387;28;20079;-70
2024/01/18 01:02:08;;;;;;;23.90;15.60;;;-2.00;99.90;;;;;;5076350;28;20036;-69
2024/01/18 01:04:34;;;;;;;21.98;15.10;;;-1.80;99.90;;;;;;5094386;28;20036;-70
2024/01/18 01:07:00;;;;;;;25.65;15.32;;;-2.10;99.90;;;;;;5059201;28;20096;-69
2024/01/18 01:09:26;;;;;;;25.05;14.68;;;-2.10;99.90;;;;;;5076121;28;20467;-69
2024/01/18 01:11:52;;;;;;;21.35;14.95;;;-2.10;99.90;;;;;;5076122;28;20488;-69
2024/01/18 01:14:18;;;;;;;22.10;14.57;;;-2.10;99.90;;;;;;5059768;28;20044;-69
2024/01/18 01:16:44;;;;;;;24.30;15.60;;;-2.10;99.90;;;;;;5059131;28;20097;-69
2024/01/18 01:19:10;;;;;;;23.70;14.75;;;-2.20;99.90;;;;;;5058765;28;20032;-69
2024/01/18 01:21:36;;;;;;;22.23;14.20;;;-2.20;99.90;;;;;;5076011;28;20040;-69
2024/01/18 01:24:02;;;;;;;26.80;14.60;;;-2.10;99.90;;;;;;5075631;28;20114;-69
2024/01/18 01:26:29;;;;;;;23.98;13.98;;;-2.20;99.90;;;;;;5058746;28;20058;-69
2024/01/18 01:28:54;;;;;;;21.92;14.55;;;-2.30;99.90;;;;;;5058939;28;20086;-69
2024/01/18 01:31:20;;;;;;;25.33;14.45;;;-2.30;99.90;;;;;;5075502;28;20040;-69
2024/01/18 01:33:47;;;;;;;23.85;14.35;;;-2.20;99.90;;;;;;5042048;28;20071;-69
2024/01/18 01:36:13;;;;;;;22.88;14.25;;;-2.40;99.90;;;;;;5059216;28;20489;-69
2024/01/18 01:38:39;;;;;;;21.35;14.05;;;-2.40;99.90;;;;;;5075173;28;20043;-69
2024/01/18 01:41:05;;;;;;;23.08;14.38;;;-2.40;99.90;;;;;;5075517;28;20071;-69
2024/01/18 01:43:31;;;;;;;20.70;14.15;;;-2.40;99.90;;;;;;5075085;28;20044;-69
2024/01/18 01:45:57;;;;;;;19.77;13.98;;;-2.40;99.90;;;;;;5058812;28;20400;-70
2024/01/18 01:48:24;;;;;;;24.23;14.55;;;-2.50;99.90;;;;;;5058731;28;20051;-69
2024/01/18 01:50:49;;;;;;;22.88;15.18;;;-2.40;99.90;;;;;;5058439;28;20067;-69
2024/01/18 01:53:18;;;;;;;22.67;14.48;;;-2.40;99.90;;;;;;5075034;28;20129;-69
2024/01/18 01:55:44;;;;;;;21.58;14.13;;;-2.50;99.90;;;;;;5075109;28;20040;-69
2024/01/18 01:58:16;;;;;;;24.17;14.48;;;-2.50;99.90;;;;;;5058253;28;20032;-69
2024/01/18 02:00:42;;;;;;;18.67;13.57;;;-2.50;99.90;;;;;;5074998;28;20047;-69
2024/01/18 02:03:08;;;;;;;21.33;13.27;;;-2.50;99.90;;;;;;5075285;28;20100;-69
2024/01/18 02:05:35;;;;;;;22.42;13.73;;;-2.50;99.90;;;;;;5091894;28;20090;-69
2024/01/18 02:08:00;;;;;;;24.40;14.38;;;-2.60;99.90;;;;;;5074858;28;20276;-70
2024/01/18 02:10:27;;;;;;;22.55;13.90;;;-2.60;99.90;;;;;;5058351;28;20392;-70
2024/01/18 02:12:54;;;;;;;20.58;13.70;;;-2.60;99.90;;;;;;5041724;28;20044;-71
2024/01/18 02:15:24;;;;;;;19.50;13.77;;;-2.40;99.90;;;;;;5058534;28;20392;-70
2024/01/18 02:17:50;;;;;;;21.30;13.52;;;-2.70;99.90;;;;;;5074974;28;20442;-71
2024/01/18 02:20:16;;;;;;;22.45;12.95;;;-2.80;99.90;;;;;;5041502;28;20044;-71
2024/01/18 02:22:43;;;;;;;22.33;14.38;;;-2.80;99.90;;;;;;5058050;28;20040;-70
2024/01/18 02:25:24;;;;;;;24.45;14.23;;;-2.80;99.90;;;;;;5091530;28;20059;-71
2024/01/18 02:27:56;;;;;;;24.05;14.18;;;-2.80;99.90;;;;;;5074834;28;20047;-71
2024/01/18 02:30:22;;;;;;;22.38;15.02;;;-2.80;99.90;;;;;;5074507;28;20039;-70
2024/01/18 02:32:48;;;;;;;22.90;14.40;;;-2.80;99.90;;;;;;5057895;28;20040;-70
2024/01/18 02:35:15;;;;;;;24.70;14.18;;;-2.80;99.90;;;;;;5041366;28;20036;-70
2024/01/18 02:37:41;;;;;;;22.45;14.20;;;-2.80;99.90;;;;;;5057891;28;20078;-71
2024/01/18 02:40:07;;;;;;;21.15;13.88;;;-2.90;99.90;;;;;;5074624;28;20107;-70
2024/01/18 02:42:33;;;;;;;20.83;13.27;;;-2.90;99.90;;;;;;5057836;28;20040;-70
2024/01/18 02:45:02;;;;;;;22.10;13.63;;;-2.90;99.90;;;;;;5058021;28;20092;-70
2024/01/18 02:47:29;;;;;;;20.02;13.32;;;-2.90;99.90;;;;;;5058298;28;20101;-70
2024/01/18 02:49:58;;;;;;;19.10;13.00;;;-2.90;99.90;;;;;;5074761;28;20562;-70
2024/01/18 02:52:23;;;;;;;19.92;12.18;;;-2.90;99.90;;;;;;5061063;28;20040;-70
2024/01/18 02:54:49;;;;;;;18.73;12.38;;;-3.00;99.90;;;;;;5078446;28;20040;-70
2024/01/18 02:57:15;;;;;;;22.35;12.52;;;-3.00;99.90;;;;;;5061739;28;20072;-70
2024/01/18 02:59:40;;;;;;;19.55;12.60;;;-3.00;99.90;;;;;;5078492;28;20047;-70
2024/01/18 03:02:06;;;;;;;21.42;12.48;;;-3.00;99.90;;;;;;5078405;28;20557;-71
2024/01/18 03:04:32;;;;;;;22.90;12.68;;;-3.00;99.90;;;;;;5078399;28;20044;-70
2024/01/18 03:06:58;;;;;;;22.27;12.57;;;-3.10;99.90;;;;;;5078168;28;20548;-70
2024/01/18 03:09:24;;;;;;;20.40;12.68;;;-3.10;99.90;;;;;;5078362;28;20036;-70
2024/01/18 03:11:50;;;;;;;19.98;12.27;;;-3.10;99.90;;;;;;5078414;28;20042;-70
2024/01/18 03:14:15;;;;;;;19.83;11.70;;;-3.10;99.90;;;;;;5078477;28;20043;-70
2024/01/18 03:16:42;;;;;;;19.88;11.65;;;-3.10;99.90;;;;;;5061667;28;20043;-71
2024/01/18 03:19:12;;;;;;;18.35;10.70;;;-3.20;99.90;;;;;;5061944;28;20044;-69
2024/01/18 03:21:38;;;;;;;19.80;11.10;;;-3.20;99.90;;;;;;5078129;28;20048;-70
2024/01/18 03:24:05;;;;;;;17.45;11.10;;;-3.20;99.90;;;;;;5077702;28;20044;-68
2024/01/18 03:26:31;;;;;;;19.35;10.93;;;-3.20;99.90;;;;;;5061562;28;20060;-69
2024/01/18 03:28:57;;;;;;;17.52;10.50;;;-3.20;99.90;;;;;;5078073;28;20046;-69
2024/01/18 03:31:23;;;;;;;19.30;10.65;;;-3.20;99.90;;;;;;5094596;28;20051;-69
2024/01/18 03:33:49;;;;;;;16.83;10.05;;;-3.20;99.90;;;;;;5061047;28;20044;-69
2024/01/18 03:36:16;;;;;;;16.63;10.20;;;-3.20;99.90;;;;;;5060809;28;20039;-69
2024/01/18 03:38:42;;;;;;;18.63;10.13;;;-3.30;99.90;;;;;;5077604;28;20036;-69
2024/01/18 03:41:08;;;;;;;18.13;10.05;;;-3.20;99.90;;;;;;5061104;28;20130;-69
2024/01/18 03:43:33;;;;;;;16.90;9.82;;;-3.30;99.90;;;;;;5044204;28;20135;-68
2024/01/18 03:45:59;;;;;;;16.02;9.32;;;-3.30;99.90;;;;;;5044285;28;20043;-69
2024/01/18 03:48:25;;;;;;;16.08;9.25;;;-3.30;99.90;;;;;;5061196;28;20040;-69
2024/01/18 03:50:50;;;;;;;15.23;9.10;;;-3.30;99.90;;;;;;5061027;28;20089;-69
2024/01/18 03:53:18;;;;;;;16.30;9.23;;;-3.30;99.90;;;;;;5077296;28;20044;-69
2024/01/18 03:55:43;;;;;;;16.95;9.48;;;-3.40;99.90;;;;;;5044258;28;20373;-69
2024/01/18 03:58:09;;;;;;;16.83;8.77;;;-3.30;99.90;;;;;;5077423;28;20032;-69
2024/01/18 04:00:38;;;;;;;17.50;9.52;;;-3.30;99.90;;;;;;5077393;28;20511;-69
2024/01/18 04:03:04;;;;;;;15.57;9.68;;;-3.30;99.90;;;;;;5077338;28;20519;-69
2024/01/18 04:05:30;;;;;;;16.55;8.60;;;-3.40;99.90;;;;;;5077257;28;20078;-69
2024/01/18 04:07:56;;;;;;;13.02;7.97;;;-3.40;99.90;;;;;;5076935;28;20075;-69
2024/01/18 04:10:21;;;;;;;19.92;8.38;;;-3.30;99.90;;;;;;5077133;28;20123;-69
2024/01/18 04:12:47;;;;;;;17.25;8.35;;;-3.30;99.90;;;;;;5077570;28;20130;-69
2024/01/18 04:15:13;;;;;;;21.95;9.20;;;-3.40;99.90;;;;;;5060658;28;20047;-69
2024/01/18 04:17:39;;;;;;;15.27;8.32;;;-3.40;99.90;;;;;;5043751;28;20040;-69
2024/01/18 04:20:06;;;;;;;16.23;8.02;;;-3.40;99.90;;;;;;5061030;28;20407;-69
2024/01/18 04:22:33;;;;;;;14.68;7.45;;;-3.30;99.90;;;;;;5060187;28;20052;-69
2024/01/18 04:24:59;;;;;;;13.43;6.90;;;-3.40;99.90;;;;;;5076818;28;20048;-69
2024/01/18 04:27:24;;;;;;;13.30;7.38;;;-3.30;99.90;;;;;;5060462;28;20111;-69
2024/01/18 04:29:50;;;;;;;14.68;6.95;;;-3.30;99.90;;;;;;5076679;28;20047;-69
2024/01/18 04:32:16;;;;;;;14.00;6.68;;;-3.20;99.90;;;;;;5060028;28;20040;-69
2024/01/18 04:34:42;;;;;;;12.50;5.90;;;-3.20;99.90;;;;;;5076770;28;20036;-69
2024/01/18 04:37:08;;;;;;;14.57;6.30;;;-3.20;99.90;;;;;;5076575;28;20036;-69
2024/01/18 04:39:34;;;;;;;15.02;5.82;;;-3.10;99.90;;;;;;5060121;28;20495;-69
2024/01/18 04:42:00;;;;;;;14.65;5.35;;;-3.10;99.90;;;;;;5076458;28;20040;-69
2024/01/18 04:44:26;;;;;;;11.90;5.28;;;-3.00;99.90;;;;;;5076611;28;20093;-69
2024/01/18 04:46:52;;;;;;;9.52;4.60;;;-2.90;99.90;;;;;;5076633;28;20122;-69
2024/01/18 04:49:17;;;;;;;11.45;4.50;;;-2.80;99.90;;;;;;5043304;28;20086;-69
2024/01/18 04:51:43;;;;;;;11.38;3.50;;;-2.70;99.90;;;;;;5059681;28;20072;-69
2024/01/18 04:54:09;;;;;;;8.48;3.40;;;-2.70;99.90;;;;;;5076218;28;20044;-69
2024/01/18 04:56:37;;;;;;;11.65;3.17;;;-2.50;99.90;;;;;;5059787;28;20043;-69
2024/01/18 04:59:04;;;;;;;9.45;2.78;;;-2.50;99.90;;;;;;5059708;28;20047;-69
2024/01/18 05:01:30;;;;;;;10.32;2.38;;;-2.30;99.90;;;;;;5059706;28;20096;-69
2024/01/18 05:03:56;;;;;;;8.00;2.22;;;-2.30;99.90;;;;;;5076334;28;20051;-69
2024/01/18 05:06:22;;;;;;;8.30;2.30;;;-2.10;99.90;;;;;;5075964;28;20047;-69
2024/01/18 05:08:48;;;;;;;10.20;2.17;;;-2.00;99.90;;;;;;5076257;28;20476;-70
2024/01/18 05:11:13;;;;;;;7.13;2.00;;;-1.90;99.90;;;;;;5092866;28;20040;-69
2024/01/18 05:13:39;;;;;;;6.75;1.88;;;-1.80;99.90;;;;;;5058524;28;20040;-69
2024/01/18 05:16:06;;;;;;;7.35;1.80;;;-1.70;99.90;;;;;;5042711;28;20476;-69
2024/01/18 05:18:32;;;;;;;6.78;1.88;;;-1.40;99.90;;;;;;5059460;28;20460;-69
2024/01/18 05:20:58;;;;;;;7.90;2.10;;;-1.50;99.90;;;;;;5075488;28;20040;-70
2024/01/18 05:23:24;;;;;;;5.82;1.90;;;-1.50;99.90;;;;;;5042498;28;20043;-69
2024/01/18 05:25:50;;;;;;;8.07;2.00;;;-1.40;99.90;;;;;;5058838;28;20560;-69
2024/01/18 05:28:16;;;;;;;9.43;2.42;;;-1.30;99.90;;;;;;5075997;28;20048;-69
2024/01/18 05:30:41;;;;;;;8.77;2.17;;;-1.40;99.90;;;;;;5075333;28;20032;-69
2024/01/18 05:33:07;;;;;;;6.07;2.00;;;-1.40;99.90;;;;;;5058936;28;20040;-69
2024/01/18 05:35:33;;;;;;;10.93;2.40;;;-1.40;99.90;;;;;;5058917;28;20033;-69
2024/01/18 05:37:58;;;;;;;6.25;2.00;;;-1.50;99.90;;;;;;5042175;28;20100;-69
2024/01/18 05:40:24;;;;;;;9.43;2.30;;;-1.60;99.90;;;;;;5042390;28;20073;-69
2024/01/18 05:42:50;;;;;;;6.18;1.90;;;-1.60;99.90;;;;;;5042071;28;20083;-69
2024/01/18 05:45:16;;;;;;;7.88;2.50;;;-1.70;99.90;;;;;;5058812;28;20055;-69
2024/01/18 05:47:42;;;;;;;9.50;2.13;;;-1.80;99.90;;;;;;5075350;28;20485;-69
2024/01/18 05:50:08;;;;;;;9.38;2.10;;;-1.80;99.90;;;;;;5075573;28;20569;-70
2024/01/18 05:52:34;;;;;;;5.78;1.90;;;-1.90;99.90;;;;;;5075429;28;20040;-69
2024/01/18 05:55:00;;;;;;;8.15;2.05;;;-2.00;99.90;;;;;;5058500;28;20043;-69
2024/01/18 05:57:26;;;;;;;5.53;1.92;;;-2.10;99.90;;;;;;5075461;28;20040;-69
2024/01/18 05:59:51;;;;;;;6.85;2.00;;;-2.00;99.90;;;;;;5074929;28;20047;-69
2024/01/18 06:02:20;;;;;;;5.45;1.77;;;-2.20;99.90;;;;;;5075088;28;20032;-69
2024/01/18 06:04:47;;;;;;;5.70;1.73;;;-2.20;99.90;;;;;;5075069;28;20110;-69
2024/01/18 06:07:13;;;;;;;7.25;1.90;;;-2.30;99.90;;;;;;5075373;28;20039;-69
2024/01/18 06:09:38;;;;;;;7.50;2.22;;;-2.40;99.90;;;;;;5074864;28;20069;-69
2024/01/18 06:12:04;;;;;;;8.32;2.30;;;-2.40;99.90;;;;;;5074956;28;20040;-69
2024/01/18 06:14:30;;;;;;;8.18;2.30;;;-2.40;99.90;;;;;;5075224;28;20036;-69
2024/01/18 06:16:56;;;;;;;6.38;2.00;;;-2.40;99.90;;;;;;5074646;28;20040;-70
2024/01/18 06:19:23;;;;;;;8.13;1.90;;;-2.50;99.90;;;;;;5058425;28;20040;-69
2024/01/18 06:21:49;;;;;;;7.05;2.40;;;-2.50;99.90;;;;;;5058288;28;20131;-69
2024/01/18 06:24:15;;;;;;;9.13;2.40;;;-2.50;99.90;;;;;;5074725;28;20044;-69
2024/01/18 06:26:41;;;;;;;5.22;2.33;;;-2.50;99.90;;;;;;5071241;28;20056;-69
2024/01/18 06:29:07;;;;;;;8.07;2.17;;;-2.60;99.90;;;;;;5054520;28;20143;-69
2024/01/18 06:31:33;;;;;;;7.15;2.17;;;-2.60;99.90;;;;;;5038047;28;20037;-69
2024/01/18 06:33:59;;;;;;;7.38;2.30;;;-2.60;99.90;;;;;;5054804;28;20408;-69
2024/01/18 06:36:25;;;;;;;8.55;2.53;;;-2.70;99.90;;;;;;5054488;28;20054;-69
2024/01/18 06:38:50;;;;;;;7.80;2.70;;;-2.70;99.90;;;;;;5037905;28;20041;-69
2024/01/18 06:41:17;;;;;;;8.80;2.33;;;-2.70;99.90;;;;;;5021666;28;20036;-69
2024/01/18 06:43:43;;;;;;;7.72;2.50;;;-2.70;99.90;;;;;;5054487;28;20036;-69
2024/01/18 06:46:18;;;;;;;8.07;2.15;;;-2.80;99.90;;;;;;5054463;28;20048;-69
2024/01/18 06:48:52;;;;;;;6.93;2.30;;;-2.80;99.90;;;;;;5054747;28;20113;-69
2024/01/18 06:51:21;;;;;;;6.50;2.17;;;-2.90;99.90;;;;;;5037936;28;20095;-69
2024/01/18 06:53:47;;;;;;;9.93;2.47;;;-2.90;99.90;;;;;;5054760;28;20507;-69
2024/01/18 06:56:13;;;;;;;7.85;2.20;;;-2.70;99.90;;;;;;5054475;28;20044;-69
2024/01/18 06:58:40;;;;;;;10.82;2.60;;;-2.90;99.90;;;;;;5037983;28;20040;-69
2024/01/18 07:01:06;;;;;;;7.60;2.25;;;-3.00;99.90;;;;;;5054889;28;20432;-69
2024/01/18 07:03:35;;;;;;;7.05;2.13;;;-3.00;99.90;;;;;;5054445;28;20485;-69
2024/01/18 07:06:02;;;;;;;7.40;2.40;;;-3.00;99.90;;;;;;5054274;28;20044;-69
2024/01/18 07:08:29;;;;;;;8.23;2.00;;;-3.00;99.90;;;;;;5038243;28;20044;-69
2024/01/18 07:10:54;;;;;;;7.18;2.13;;;-3.10;99.90;;;;;;5021185;28;20040;-69
2024/01/18 07:13:20;;;;;;;8.35;2.20;;;-3.10;99.90;;;;;;5054643;28;20417;-69
2024/01/18 07:15:46;;;;;;;8.38;2.15;;;-3.10;99.90;;;;;;5054187;28;20174;-69
2024/01/18 07:18:12;;;;;;;8.52;2.60;;;-3.20;99.90;;;;;;5054296;28;20162;-69
2024/01/18 07:20:38;;;;;;;7.88;2.33;;;-3.20;99.90;;;;;;5037612;28;20041;-69
2024/01/18 07:23:04;;;;;;;6.63;2.30;;;-3.20;99.90;;;;;;5037861;28;20071;-69
2024/01/18 07:25:31;;;;;;;6.85;2.30;;;-3.20;99.90;;;;;;5054330;28;20040;-69
2024/01/18 07:27:57;;;;;;;6.65;2.10;;;-3.20;99.90;;;;;;5037864;28;20071;-69
2024/01/18 07:30:25;;;;;;;8.18;2.22;;;-3.30;99.90;;;;;;5037595;28;20033;-69
2024/01/18 07:32:51;;;;;;;7.35;1.98;;;-3.20;99.90;;;;;;5037552;28;20080;-69
2024/01/18 07:35:17;;;;;;;6.50;1.83;;;-3.20;99.90;;;;;;5037607;28;20133;-69
2024/01/18 07:37:43;;;;;;;5.18;1.90;;;-3.20;99.90;;;;;;5039463;28;20156;-69
2024/01/18 07:40:09;;;;;;;6.70;2.00;;;-3.10;99.90;;;;;;5041447;28;20048;-69
2024/01/18 07:42:35;;;;;;;5.72;2.05;;;-3.10;99.90;;;;;;5024560;28;20045;-69
2024/01/18 07:45:00;;;;;;;8.00;2.03;;;-3.00;99.90;;;;;;5057473;28;20063;-69
2024/01/18 07:47:26;;;;;;;6.47;2.30;;;-3.00;99.90;;;;;;5057322;28;20199;-69
2024/01/18 07:49:52;;;;;;;8.95;2.15;;;-3.00;99.90;;;;;;5057342;28;20033;-69
2024/01/18 07:52:18;;;;;;;8.20;2.72;;;-3.00;99.90;;;;;;5057718;28;20063;-69
2024/01/18 07:54:45;;;;;;;11.02;7.30;;;-3.00;99.90;;;;;;5057521;28;20036;-69
2024/01/18 07:57:11;;;;;;;8.45;4.30;;;-3.00;99.90;;;;;;5057260;28;20094;-69
2024/01/18 07:59:36;;;;;;;8.82;3.60;;;-2.90;99.90;;;;;;5024388;28;20044;-69
2024/01/18 08:02:02;;;;;;;9.52;3.50;;;-2.80;99.90;;;;;;5040678;28;20079;-69
2024/01/18 08:04:29;;;;;;;9.25;3.25;;;-2.70;99.90;;;;;;5057580;28;20040;-69
2024/01/18 08:06:56;;;;;;;7.60;3.55;;;-2.60;99.90;;;;;;5057334;28;20396;-69
2024/01/18 08:09:21;;;;;;;8.27;3.53;;;-2.50;99.90;;;;;;5057133;28;20045;-69
2024/01/18 08:11:47;;;;;;;8.45;3.08;;;-2.40;99.90;;;;;;5057131;28;20477;-69
2024/01/18 08:14:13;;;;;;;23.55;19.92;;;-2.20;99.90;;;;;;5040657;28;20049;-69
2024/01/18 08:16:39;;;;;;;21.80;12.55;;;-2.00;99.90;;;;;;5057168;28;20033;-69
2024/01/18 08:19:05;;;;;;;18.00;10.65;;;-1.70;99.90;;;;;;5057217;28;20041;-69
2024/01/18 08:21:31;;;;;;;15.05;6.40;;;-1.30;99.90;;;;;;5056783;28;20056;-69
2024/01/18 08:23:57;;;;;;;9.00;4.65;;;-1.00;99.90;;;;;;5040233;28;20454;-69
2024/01/18 08:26:23;;;;;;;14.07;4.70;;;-0.80;99.90;;;;;;5055956;28;20055;-69
2024/01/18 08:28:48;;;;;;;11.95;4.05;;;-0.70;99.90;;;;;;5077160;28;20519;-69
2024/01/18 08:31:14;;;;;;;7.90;3.92;;;-0.70;99.90;;;;;;5076844;28;20098;-69
2024/01/18 08:33:40;;;;;;;12.45;5.28;;;-0.70;99.90;;;;;;5076776;28;20044;-69
2024/01/18 08:36:08;;;;;;;9.35;3.40;;;-0.70;99.90;;;;;;5076799;28;20074;-69
2024/01/18 08:38:34;;;;;;;8.77;3.00;;;-0.60;99.90;;;;;;5060370;28;20566;-69
2024/01/18 08:41:00;;;;;;;7.70;3.00;;;-0.70;99.90;;;;;;5059997;28;20036;-69
2024/01/18 08:43:27;;;;;;;9.52;2.70;;;-0.90;99.90;;;;;;5027207;28;20066;-69
2024/01/18 08:45:56;;;;;;;6.72;3.00;;;-1.00;99.90;;;;;;5060058;28;20131;-69
2024/01/18 08:48:22;;;;;;;8.60;2.78;;;-0.90;99.90;;;;;;5058668;28;20040;-69
2024/01/18 08:50:48;;;;;;;10.10;3.08;;;-0.80;99.90;;;;;;5076414;28;20040;-69
2024/01/18 08:53:14;;;;;;;7.85;2.30;;;-0.70;99.90;;;;;;5076473;28;20044;-69
2024/01/18 08:55:41;;;;;;;9.73;2.70;;;-0.50;99.90;;;;;;5060150;28;20484;-68
2024/01/18 08:58:08;;;;;;;9.15;3.38;;;-0.30;99.90;;;;;;5059731;28;20124;-68
2024/01/18 09:00:34;;;;;;;8.98;4.32;;;-0.20;99.90;;;;;;5059713;28;20098;-68
2024/01/18 09:03:00;;;;;;;8.57;3.13;;;0.00;99.90;;;;;;5076313;28;20040;-69
2024/01/18 09:05:26;;;;;;;12.32;5.97;;;0.20;99.90;;;;;;5077290;28;20503;-69
2024/01/18 09:07:52;;;;;;;8.80;4.10;;;0.30;99.90;;;;;;5076929;28;20572;-69
2024/01/18 09:10:19;;;;;;;8.18;3.20;;;0.50;99.90;;;;;;5060294;28;20078;-69
2024/01/18 09:12:46;;;;;;;9.27;2.80;;;0.70;99.90;;;;;;5076548;28;20051;-69
2024/01/18 09:15:12;;;;;;;9.95;4.15;;;1.00;99.90;;;;;;5043571;28;20066;-70
2024/01/18 09:17:38;;;;;;;12.05;5.40;;;1.10;99.90;;;;;;5076657;28;20040;-69
2024/01/18 09:20:04;;;;;;;8.00;3.15;;;1.10;99.90;;;;;;5059495;28;20032;-69
2024/01/18 09:22:30;;;;;;;8.23;2.45;;;1.20;99.90;;;;;;5076345;28;20036;-70
2024/01/18 09:24:56;;;;;;;6.28;2.10;;;1.20;99.90;;;;;;5059431;28;20040;-70
2024/01/18 09:27:22;;;;;;;5.72;2.05;;;1.40;99.90;;;;;;5076180;28;20046;-69
2024/01/18 09:29:48;;;;;;;7.50;1.85;;;1.50;99.90;;;;;;5058876;28;20101;-70
2024/01/18 09:32:15;;;;;;;6.95;1.73;;;1.70;99.90;;;;;;5059068;28;20040;-69
2024/01/18 09:34:41;;;;;;;5.15;1.50;;;1.90;99.90;;;;;;5058958;28;20048;-70
2024/01/18 09:37:07;;;;;;;4.43;1.33;;;2.00;99.90;;;;;;5058896;28;20035;-70
2024/01/18 09:39:32;;;;;;;6.38;1.30;;;2.10;99.90;;;;;;5075575;28;20039;-69
2024/01/18 09:41:58;;;;;;;7.57;1.20;;;2.20;99.90;;;;;;5058609;28;20111;-68
2024/01/18 09:44:30;;;;;;;6.22;1.40;;;2.20;99.90;;;;;;5042473;28;20043;-68
2024/01/18 09:46:58;;;;;;;5.93;1.50;;;2.30;99.90;;;;;;5058657;28;20107;-68
2024/01/18 09:49:29;;;;;;;5.00;1.30;;;2.30;99.90;;;;;;5042394;28;20047;-69
2024/01/18 09:51:58;;;;;;;4.82;1.30;;;2.20;99.90;;;;;;5074979;28;20040;-68
2024/01/18 09:54:24;;;;;;;5.65;1.30;;;2.20;99.90;;;;;;5059239;28;20043;-69
2024/01/18 09:56:53;;;;;;;5.80;1.52;;;2.10;99.90;;;;;;5075344;28;20051;-68
2024/01/18 09:59:21;;;;;;;6.43;1.30;;;2.00;99.90;;;;;;5058203;28;20042;-68
2024/01/18 10:01:47;;;;;;;6.88;1.45;;;2.00;99.90;;;;;;5075056;28;20062;-68
2024/01/18 10:04:17;;;;;;;4.85;1.40;;;2.00;99.90;;;;;;5075407;28;20044;-68
2024/01/18 10:06:43;;;;;;;5.03;1.40;;;2.10;99.90;;;;;;5058441;28;20097;-68
2024/01/18 10:09:19;;;;;;;4.82;1.45;;;1.90;99.90;;;;;;5058452;28;20442;-68
2024/01/18 10:11:46;;;;;;;6.22;1.40;;;2.00;99.90;;;;;;5074864;28;20044;-68
2024/01/18 10:14:12;;;;;;;4.88;1.30;;;2.10;99.90;;;;;;5074956;28;20048;-68
2024/01/18 10:16:39;;;;;;;5.32;1.20;;;2.20;99.90;;;;;;5075144;28;20365;-68
2024/01/18 10:19:06;;;;;;;5.25;1.33;;;2.20;99.90;;;;;;5041802;28;20032;-69
2024/01/18 10:21:34;;;;;;;4.63;1.40;;;2.30;99.90;;;;;;5075232;28;20187;-69
2024/01/18 10:24:03;;;;;;;7.32;1.40;;;2.40;99.90;;;;;;5058152;28;20044;-68
2024/01/18 10:26:31;;;;;;;6.55;1.50;;;2.50;99.90;;;;;;5057756;28;20104;-68
2024/01/18 10:28:57;;;;;;;5.38;1.40;;;2.60;99.90;;;;;;5075028;28;20048;-69
2024/01/18 10:31:23;;;;;;;6.75;1.40;;;2.50;99.90;;;;;;5074801;28;20044;-68
2024/01/18 10:33:50;;;;;;;6.68;1.33;;;2.40;99.90;;;;;;5074653;28;20036;-68
2024/01/18 10:36:15;;;;;;;5.30;1.35;;;2.50;99.90;;;;;;5074768;28;20047;-68
2024/01/18 10:38:41;;;;;;;3.70;1.30;;;2.40;99.90;;;;;;5057937;28;20044;-68
2024/01/18 10:41:08;;;;;;;3.92;1.13;;;2.40;99.90;;;;;;5074966;28;20047;-68
2024/01/18 10:43:35;;;;;;;5.22;1.30;;;2.50;99.90;;;;;;5074602;28;20048;-69
2024/01/18 10:46:02;;;;;;;5.28;1.20;;;2.40;99.90;;;;;;5074593;28;20060;-69
2024/01/18 10:48:31;;;;;;;4.70;1.30;;;2.50;99.90;;;;;;5057929;28;20044;-69
2024/01/18 10:50:58;;;;;;;5.75;1.58;;;2.50;99.90;;;;;;5058340;28;20047;-69
2024/01/18 10:53:25;;;;;;;5.43;1.38;;;2.50;99.90;;;;;;5074837;28;20428;-69
2024/01/18 10:55:52;;;;;;;5.00;1.70;;;2.50;99.90;;;;;;5074502;28;20044;-70
2024/01/18 10:58:18;;;;;;;5.00;1.13;;;2.50;99.90;;;;;;5058051;28;20082;-69
2024/01/18 11:00:46;;;;;;;5.53;1.42;;;2.50;99.90;;;;;;5057622;28;20048;-68
2024/01/18 11:03:14;;;;;;;5.28;1.40;;;2.40;99.90;;;;;;5041356;28;20051;-68
2024/01/18 11:05:42;;;;;;;6.15;1.33;;;2.40;99.90;;;;;;5074519;28;20047;-68
2024/01/18 11:08:08;;;;;;;5.80;1.20;;;2.50;99.90;;;;;;5074284;28;20044;-68
2024/01/18 11:10:34;;;;;;;8.05;1.40;;;2.50;99.90;;;;;;5074290;28;20404;-68
2024/01/18 11:13:01;;;;;;;5.90;1.33;;;2.50;99.90;;;;;;5060228;28;20040;-68
2024/01/18 11:15:27;;;;;;;7.05;1.20;;;2.50;99.90;;;;;;5078300;28;20036;-68
2024/01/18 11:17:54;;;;;;;5.20;1.08;;;2.60;99.90;;;;;;5078052;28;20119;-67
2024/01/18 11:20:21;;;;;;;3.80;1.10;;;2.70;99.90;;;;;;5061527;28;20181;-67
2024/01/18 11:22:47;;;;;;;5.88;1.42;;;2.80;99.90;;;;;;5078071;28;20098;-67
2024/01/18 11:25:19;;;;;;;4.78;1.10;;;2.80;99.90;;;;;;5071846;28;20059;-67
2024/01/18 11:27:46;;;;;;;5.97;1.00;;;2.90;99.90;;;;;;5058206;28;20131;-67
2024/01/18 11:30:30;;;;;;;4.32;1.10;;;2.80;99.90;;;;;;5040637;28;20047;-72
2024/01/18 11:32:56;;;;;;;5.85;1.20;;;2.80;99.90;;;;;;5054347;28;20032;-72
2024/01/18 11:35:23;;;;;;;4.75;1.20;;;2.80;99.90;;;;;;5040740;28;20557;-73
2024/01/18 11:37:49;;;;;;;5.65;1.17;;;2.70;99.90;;;;;;5056189;28;20043;-72
2024/01/18 11:40:18;;;;;;;3.90;0.90;;;2.60;99.90;;;;;;5057672;28;20203;-72
2024/01/18 11:42:45;;;;;;;3.83;0.80;;;2.60;99.90;;;;;;5052647;28;20504;-72
2024/01/18 11:45:18;;;;;;;5.35;1.00;;;2.50;99.90;;;;;;5041262;28;20492;-72
2024/01/18 11:47:48;;;;;;;3.15;0.77;;;2.30;99.90;;;;;;5057596;28;20048;-72
2024/01/18 11:50:16;;;;;;;5.32;1.00;;;2.30;99.90;;;;;;5041052;28;20036;-74
2024/01/18 11:52:43;;;;;;;2.28;0.80;;;2.20;99.90;;;;;;5041270;28;20098;-67
2024/01/18 11:55:11;;;;;;;4.50;0.90;;;2.20;99.90;;;;;;5040959;28;20507;-67
2024/01/18 11:57:37;;;;;;;2.97;0.85;;;2.30;99.90;;;;;;5057524;28;20040;-67
2024/01/18 12:00:04;;;;;;;5.38;1.00;;;2.30;99.90;;;;;;5040867;28;20439;-67
2024/01/18 12:02:30;;;;;;;4.63;0.80;;;2.50;99.90;;;;;;5040994;28;20127;-67
2024/01/18 12:04:57;;;;;;;5.05;0.80;;;2.60;99.90;;;;;;5040593;28;20481;-67
2024/01/18 12:07:25;;;;;;;4.07;0.80;;;2.70;99.90;;;;;;5024410;28;20040;-67
2024/01/18 12:09:51;;;;;;;1.95;0.60;;;2.80;99.90;;;;;;5057346;28;20047;-67
2024/01/18 12:12:18;;;;;;;3.10;0.60;;;2.80;99.90;;;;;;5040501;28;20067;-67
2024/01/18 12:14:46;;;;;;;2.25;0.80;;;2.90;99.90;;;;;;5057393;28;20045;-67
2024/01/18 12:17:14;;;;;;;3.47;0.80;;;3.10;99.90;;;;;;5040627;28;20081;-67
2024/01/18 12:19:43;;;;;;;2.85;0.80;;;3.10;99.90;;;;;;5057122;28;20033;-67
2024/01/18 12:22:17;;;;;;;4.13;0.88;;;3.10;99.90;;;;;;5040570;28;20036;-67
2024/01/18 12:24:44;;;;;;;1.65;0.70;;;3.00;99.90;;;;;;5040072;28;20036;-67
2024/01/18 12:27:10;;;;;;;3.28;0.90;;;2.80;99.90;;;;;;5040324;28;20084;-67
2024/01/18 12:29:41;;;;;;;3.38;0.90;;;2.70;99.90;;;;;;5056638;28;20129;-67
2024/01/18 12:32:11;;;;;;;2.85;0.82;;;2.60;99.90;;;;;;5056807;28;20037;-67
2024/01/18 12:34:37;;;;;;;3.30;0.90;;;2.60;99.90;;;;;;5039369;28;20515;-67
2024/01/18 12:37:04;;;;;;;2.90;0.80;;;2.50;99.90;;;;;;5040063;28;20049;-68
2024/01/18 12:39:36;;;;;;;3.78;0.90;;;2.50;99.90;;;;;;5057272;28;20113;-68